createdAt,value
2019-05-02T00:00:50.017Z,54.40
2019-05-02T00:03:20.392Z,56.30
2019-05-02T00:05:49.321Z,57.30
2019-05-02T00:08:18.159Z,58.00
2019-05-02T00:10:47.373Z,59.50
2019-05-02T00:13:16.162Z,63.00
2019-05-02T00:15:44.890Z,66.90
2019-05-02T00:18:13.719Z,71.10
2019-05-02T00:20:42.452Z,73.70
2019-05-02T00:23:11.183Z,77.00
2019-05-02T00:25:39.912Z,80.70
2019-05-02T00:28:12.504Z,83.00
2019-05-02T00:30:39.022Z,84.80
2019-05-02T00:33:10.377Z,86.40
2019-05-02T00:35:40.989Z,88.60
2019-05-02T00:38:08.503Z,89.80
2019-05-02T00:40:37.235Z,90.70
2019-05-02T00:43:06.036Z,91.20
2019-05-02T00:45:34.769Z,91.20
2019-05-02T00:48:08.117Z,91.60
2019-05-02T00:50:45.288Z,91.60
2019-05-02T00:53:12.137Z,91.50
2019-05-02T00:55:41.635Z,91.70
2019-05-02T00:58:10.361Z,91.90
2019-05-02T01:00:56.723Z,92.30
2019-05-02T01:03:27.090Z,92.20
2019-05-02T01:05:55.754Z,92.70
2019-05-02T01:08:24.491Z,93.20
2019-05-02T01:10:56.825Z,93.00
2019-05-02T01:13:23.523Z,93.20
2019-05-02T01:15:52.269Z,93.20
2019-05-02T01:18:22.637Z,93.30
2019-05-02T01:20:51.366Z,93.10
2019-05-02T01:23:22.965Z,92.80
2019-05-02T01:25:52.891Z,92.50
2019-05-02T01:28:28.630Z,93.00
2019-05-02T01:31:04.677Z,92.90
2019-05-02T01:33:43.795Z,92.70
2019-05-02T01:36:22.505Z,92.50
2019-05-02T01:38:51.309Z,93.30
2019-05-02T01:41:23.942Z,93.50
2019-05-02T01:43:50.339Z,93.80
2019-05-02T01:46:22.368Z,93.90
2019-05-02T01:48:49.388Z,94.20
2019-05-02T01:51:18.043Z,94.20
2019-05-02T01:53:46.779Z,94.20
2019-05-02T01:56:15.437Z,94.70
2019-05-02T01:58:44.171Z,94.90
2019-05-02T02:01:16.266Z,94.80
2019-05-02T02:03:45.614Z,94.80
2019-05-02T02:06:14.214Z,94.90
2019-05-02T02:08:42.941Z,95.30
2019-05-02T02:11:11.680Z,95.00
2019-05-02T02:13:40.410Z,95.10
2019-05-02T02:16:09.148Z,95.10
2019-05-02T02:18:51.493Z,95.00
2019-05-02T02:21:25.693Z,94.90
2019-05-02T02:24:05.586Z,95.70
2019-05-02T02:26:34.311Z,96.00
2019-05-02T02:29:07.339Z,96.00
2019-05-02T02:31:39.654Z,96.20
2019-05-02T02:34:03.903Z,96.20
2019-05-02T02:36:34.721Z,96.30
2019-05-02T02:39:07.027Z,96.70
2019-05-02T02:41:33.228Z,96.50
2019-05-02T02:44:09.764Z,96.40
2019-05-02T02:46:43.125Z,97.10
2019-05-02T02:49:14.200Z,97.30
2019-05-02T02:51:42.240Z,97.40
2019-05-02T02:54:10.970Z,97.80
2019-05-02T02:56:40.752Z,97.80
2019-05-02T02:59:09.636Z,97.50
2019-05-02T03:01:38.370Z,97.60
2019-05-02T03:04:12.234Z,97.60
2019-05-02T03:06:38.411Z,97.80
2019-05-02T03:09:07.864Z,97.80
2019-05-02T03:11:40.909Z,97.80
2019-05-02T03:14:19.771Z,98.20
2019-05-02T03:16:49.539Z,98.20
2019-05-02T03:19:21.122Z,98.10
2019-05-02T03:22:01.091Z,98.40
2019-05-02T03:24:26.033Z,98.30
2019-05-02T03:26:55.857Z,98.20
2019-05-02T03:29:25.235Z,98.40
2019-05-02T03:32:11.608Z,98.80
2019-05-02T03:34:24.340Z,98.80
2019-05-02T03:36:53.007Z,99.00
2019-05-02T03:39:22.435Z,99.00
2019-05-02T03:41:55.783Z,99.00
2019-05-02T03:44:25.812Z,99.10
2019-05-02T03:46:54.188Z,99.20
2019-05-02T03:49:22.600Z,99.30
2019-05-02T03:51:56.157Z,99.30
2019-05-02T03:54:21.710Z,99.30
2019-05-02T03:56:51.072Z,99.30
2019-05-02T03:59:20.476Z,99.10
2019-05-02T04:01:49.214Z,99.10
2019-05-02T04:04:20.819Z,99.10
2019-05-02T04:06:48.422Z,99.10
2019-05-02T04:09:32.112Z,99.20
2019-05-02T04:11:59.358Z,99.10
2019-05-02T04:14:37.435Z,99.20
2019-05-02T04:16:59.758Z,99.00
2019-05-02T04:19:34.691Z,99.10
2019-05-02T04:22:01.508Z,99.00
2019-05-02T04:24:30.645Z,99.20
2019-05-02T04:26:59.650Z,98.70
2019-05-02T04:29:31.361Z,98.90
2019-05-02T04:32:04.279Z,98.90
2019-05-02T04:34:28.997Z,98.40
2019-05-02T04:37:01.305Z,98.40
2019-05-02T04:39:28.624Z,98.50
2019-05-02T04:41:58.639Z,98.50
2019-05-02T04:44:32.223Z,98.30
2019-05-02T04:47:02.581Z,98.20
2019-05-02T04:49:33.773Z,98.20
2019-05-02T04:52:06.026Z,98.20
2019-05-02T04:54:32.406Z,98.10
2019-05-02T04:57:02.456Z,98.20
2019-05-02T04:59:32.918Z,98.10
2019-05-02T05:02:01.544Z,97.80
2019-05-02T05:04:33.117Z,97.90
2019-05-02T05:07:01.420Z,97.90
2019-05-02T05:09:30.283Z,97.70
2019-05-02T05:12:02.393Z,97.70
2019-05-02T05:14:31.448Z,97.30
2019-05-02T05:16:59.645Z,97.30
2019-05-02T05:19:32.576Z,97.30
2019-05-02T05:22:04.558Z,97.50
2019-05-02T05:24:38.470Z,97.20
2019-05-02T05:27:03.646Z,97.30
2019-05-02T05:29:32.308Z,97.00
2019-05-02T05:32:07.850Z,97.00
2019-05-02T05:34:32.760Z,96.40
2019-05-02T05:37:03.548Z,96.50
2019-05-02T05:39:32.360Z,96.30
2019-05-02T05:42:01.070Z,96.00
2019-05-02T05:44:32.587Z,96.00
2019-05-02T05:47:00.122Z,95.90
2019-05-02T05:49:28.862Z,95.60
2019-05-02T05:52:02.568Z,95.40
2019-05-02T05:54:28.465Z,95.60
2019-05-02T05:56:57.412Z,95.60
2019-05-02T05:59:28.011Z,95.40
2019-05-02T06:01:57.909Z,95.30
2019-05-02T06:04:32.723Z,95.00
2019-05-02T06:06:59.516Z,94.70
2019-05-02T06:09:31.162Z,94.50
2019-05-02T06:11:57.745Z,94.70
2019-05-02T06:14:26.514Z,94.00
2019-05-02T06:16:55.190Z,94.10
2019-05-02T06:19:23.858Z,93.90
2019-05-02T06:21:52.604Z,93.90
2019-05-02T06:24:21.337Z,94.10
2019-05-02T06:26:51.751Z,94.10
2019-05-02T06:29:21.029Z,94.10
2019-05-02T06:31:49.846Z,93.80
2019-05-02T06:34:18.578Z,93.90
2019-05-02T06:36:47.242Z,93.10
2019-05-02T06:39:15.979Z,92.60
2019-05-02T06:41:44.644Z,92.10
2019-05-02T06:44:13.382Z,91.70
2019-05-02T06:46:42.123Z,91.40
2019-05-02T06:49:10.933Z,91.40
2019-05-02T06:51:39.602Z,91.60
2019-05-02T06:54:08.409Z,92.40
2019-05-02T06:56:37.133Z,92.50
2019-05-02T06:59:05.875Z,92.90
2019-05-02T07:01:34.776Z,92.80
2019-05-02T07:04:04.337Z,92.90
2019-05-02T07:06:42.158Z,92.60
2019-05-02T07:09:04.913Z,92.70
2019-05-02T07:11:38.774Z,93.30
2019-05-02T07:14:12.913Z,93.40
2019-05-02T07:16:38.755Z,93.40
2019-05-02T07:19:08.050Z,93.50
2019-05-02T07:21:36.780Z,93.50
2019-05-02T07:24:05.511Z,93.30
2019-05-02T07:26:34.186Z,93.40
2019-05-02T07:29:02.933Z,93.60
2019-05-02T07:31:31.661Z,93.90
2019-05-02T07:34:00.402Z,94.20
2019-05-02T07:36:31.196Z,94.20
2019-05-02T07:39:05.217Z,94.40
2019-05-02T07:41:30.311Z,94.70
2019-05-02T07:43:59.005Z,94.90
2019-05-02T07:46:27.743Z,95.00
2019-05-02T07:48:56.707Z,94.70
2019-05-02T07:51:25.414Z,94.70
2019-05-02T07:53:55.729Z,95.20
2019-05-02T07:56:24.615Z,94.90
2019-05-02T07:58:53.946Z,95.00
2019-05-02T08:01:22.688Z,95.00
2019-05-02T08:03:51.414Z,95.00
2019-05-02T08:06:20.153Z,95.20
2019-05-02T08:08:48.814Z,95.20
2019-05-02T08:11:17.574Z,95.00
2019-05-02T08:13:49.652Z,94.80
2019-05-02T08:16:16.687Z,94.90
2019-05-02T08:18:45.487Z,94.90
2019-05-02T08:21:14.221Z,94.90
2019-05-02T08:23:42.890Z,95.20
2019-05-02T08:26:11.622Z,95.10
2019-05-02T08:28:52.052Z,94.90
2019-05-02T08:31:18.968Z,95.10
2019-05-02T08:33:48.390Z,94.80
2019-05-02T08:36:17.041Z,94.80
2019-05-02T08:38:48.818Z,94.50
2019-05-02T08:41:20.037Z,94.30
2019-05-02T08:43:46.575Z,94.30
2019-05-02T08:46:15.956Z,94.10
2019-05-02T08:48:44.866Z,94.00
2019-05-02T08:51:13.594Z,93.90
2019-05-02T08:53:42.330Z,93.50
2019-05-02T08:56:11.066Z,93.10
2019-05-02T08:58:39.734Z,93.10
2019-05-02T09:01:09.200Z,92.20
2019-05-02T09:03:54.690Z,92.20
2019-05-02T09:06:09.222Z,92.00
2019-05-02T09:08:37.892Z,92.10
2019-05-02T09:11:06.617Z,91.40
2019-05-02T09:13:35.345Z,91.50
2019-05-02T09:16:05.977Z,91.10
2019-05-02T09:18:40.594Z,91.50
2019-05-02T09:21:04.963Z,91.60
2019-05-02T09:23:37.063Z,91.60
2019-05-02T09:26:03.986Z,91.50
2019-05-02T09:28:32.738Z,91.70
2019-05-02T09:31:02.871Z,92.00
2019-05-02T09:33:32.249Z,92.40
2019-05-02T09:36:02.386Z,92.60
2019-05-02T09:38:32.897Z,92.60
2019-05-02T09:41:15.399Z,92.70
2019-05-02T09:43:34.872Z,92.70
2019-05-02T09:46:02.613Z,92.40
2019-05-02T09:48:31.922Z,92.00
2019-05-02T09:51:04.501Z,91.80
2019-05-02T09:53:32.384Z,91.70
2019-05-02T09:56:02.221Z,91.10
2019-05-02T09:58:32.069Z,91.10
2019-05-02T10:01:02.485Z,91.00
2019-05-02T10:03:31.942Z,91.00
2019-05-02T10:06:02.920Z,90.60
2019-05-02T10:08:32.142Z,90.90
2019-05-02T10:11:02.828Z,91.20
2019-05-02T10:13:32.940Z,91.60
2019-05-02T10:16:02.144Z,91.80
2019-05-02T10:18:32.910Z,91.80
2019-05-02T10:21:03.033Z,91.50
2019-05-02T10:23:32.185Z,91.30
2019-05-02T10:26:02.796Z,91.00
2019-05-02T10:28:31.801Z,90.90
2019-05-02T10:31:02.287Z,91.10
2019-05-02T10:33:33.797Z,90.80
2019-05-02T10:36:02.662Z,90.50
2019-05-02T10:38:32.575Z,90.00
2019-05-02T10:41:03.442Z,90.30
2019-05-02T10:43:32.895Z,90.60
2019-05-02T10:46:03.438Z,90.40
2019-05-02T10:48:33.543Z,90.20
2019-05-02T10:51:06.857Z,89.40
2019-05-02T10:53:35.592Z,88.40
2019-05-02T10:56:04.326Z,87.70
2019-05-02T10:58:35.689Z,88.00
2019-05-02T11:01:04.308Z,88.20
2019-05-02T11:03:37.968Z,87.80
2019-05-02T11:06:07.662Z,87.30
2019-05-02T11:08:36.889Z,87.60
2019-05-02T11:11:06.390Z,87.40
2019-05-02T11:13:53.322Z,86.70
2019-05-02T11:16:23.878Z,87.10
2019-05-02T11:18:59.714Z,87.10
2019-05-02T11:21:28.553Z,87.60
2019-05-02T11:23:57.350Z,87.50
2019-05-02T11:26:26.267Z,87.60
2019-05-02T11:28:55.029Z,87.50
2019-05-02T11:31:24.055Z,86.90
2019-05-02T11:33:52.928Z,87.50
2019-05-02T11:36:22.407Z,87.60
2019-05-02T11:39:00.387Z,87.20
2019-05-02T11:41:22.431Z,87.10
2019-05-02T11:43:54.168Z,87.30
2019-05-02T11:46:22.131Z,87.00
2019-05-02T11:48:56.349Z,86.60
2019-05-02T11:51:22.723Z,85.90
2019-05-02T11:53:52.738Z,86.60
2019-05-02T11:56:22.246Z,86.50
2019-05-02T11:58:52.848Z,87.00
2019-05-02T12:01:34.733Z,87.60
2019-05-02T12:03:52.679Z,87.40
2019-05-02T12:06:22.549Z,87.80
2019-05-02T12:08:52.532Z,88.60
2019-05-02T12:11:22.949Z,88.90
2019-05-02T12:13:56.646Z,88.70
2019-05-02T12:16:22.884Z,89.50
2019-05-02T12:18:53.693Z,90.30
2019-05-02T12:21:22.945Z,90.90
2019-05-02T12:23:52.728Z,91.20
2019-05-02T12:26:22.182Z,91.20
2019-05-02T12:28:52.721Z,91.50
2019-05-02T12:31:26.641Z,91.10
2019-05-02T12:33:56.244Z,91.10
2019-05-02T12:36:24.977Z,90.80
2019-05-02T12:38:53.697Z,91.20
2019-05-02T12:41:25.091Z,91.20
2019-05-02T12:43:52.738Z,91.30
2019-05-02T12:46:22.143Z,91.40
2019-05-02T12:48:52.037Z,91.90
2019-05-02T12:51:22.600Z,92.10
2019-05-02T12:53:52.895Z,92.50
2019-05-02T12:56:22.870Z,92.20
2019-05-02T12:58:52.946Z,92.90
2019-05-02T13:01:22.102Z,93.10
2019-05-02T13:04:07.332Z,93.20
2019-05-02T13:06:37.201Z,93.20
2019-05-02T13:09:08.790Z,93.20
2019-05-02T13:11:42.289Z,93.00
2019-05-02T13:14:18.372Z,92.90
2019-05-02T13:16:40.041Z,92.60
2019-05-02T13:19:08.707Z,93.00
2019-05-02T13:21:49.799Z,93.10
2019-05-02T13:24:32.579Z,92.80
2019-05-02T13:27:04.053Z,92.60
2019-05-02T13:29:32.257Z,92.30
2019-05-02T13:32:21.753Z,92.20
2019-05-02T13:35:08.327Z,92.20
2019-05-02T13:37:37.227Z,91.60
2019-05-02T13:40:26.470Z,91.50
2019-05-02T13:42:55.222Z,91.10
2019-05-02T13:45:34.682Z,91.50
2019-05-02T13:48:03.412Z,91.90
2019-05-02T13:50:32.275Z,91.50
2019-05-02T13:53:02.671Z,91.80
2019-05-02T13:55:35.851Z,92.40
2019-05-02T13:58:04.581Z,92.90
2019-05-02T14:00:42.444Z,93.50
2019-05-02T14:03:11.896Z,93.90
2019-05-02T14:05:49.313Z,93.90
2019-05-02T14:08:27.648Z,94.00
2019-05-02T14:10:58.172Z,94.10
2019-05-02T14:13:26.893Z,93.10
2019-05-02T14:15:55.617Z,92.70
2019-05-02T14:18:28.940Z,92.90
2019-05-02T14:20:54.758Z,92.80
2019-05-02T14:23:23.430Z,92.50
2019-05-02T14:25:52.226Z,92.00
2019-05-02T14:28:22.386Z,91.90
2019-05-02T14:30:52.493Z,91.60
2019-05-02T14:33:23.369Z,91.20
2019-05-02T14:35:52.699Z,90.80
2019-05-02T14:38:22.088Z,90.60
2019-05-02T14:41:03.152Z,90.20
2019-05-02T14:43:44.575Z,89.00
2019-05-02T14:46:09.512Z,89.60
2019-05-02T14:48:45.137Z,86.80
2019-05-02T14:51:16.801Z,87.80
2019-05-02T14:53:43.112Z,87.90
2019-05-02T14:56:22.756Z,87.10
2019-05-02T14:58:52.845Z,87.30
2019-05-02T15:01:25.839Z,88.80
2019-05-02T15:03:52.954Z,90.10
2019-05-02T15:06:23.680Z,91.40
2019-05-02T15:08:52.599Z,92.60
2019-05-02T15:11:30.459Z,92.40
2019-05-02T15:13:52.468Z,93.70
2019-05-02T15:16:24.939Z,94.90
2019-05-02T15:18:53.313Z,94.90
2019-05-02T15:21:22.897Z,95.20
2019-05-02T15:23:54.430Z,95.40
2019-05-02T15:26:26.329Z,95.30
2019-05-02T15:28:52.486Z,95.20
2019-05-02T15:31:34.944Z,94.50
2019-05-02T15:34:22.704Z,94.60
2019-05-02T15:36:52.697Z,94.00
2019-05-02T15:41:52.371Z,93.10
2019-05-02T15:44:23.376Z,93.30
2019-05-02T15:46:52.424Z,93.30
2019-05-02T15:49:22.226Z,93.10
2019-05-02T15:51:52.354Z,93.00
2019-05-02T15:54:22.701Z,93.10
2019-05-02T15:57:00.508Z,92.70
2019-05-02T15:59:41.686Z,92.50
2019-05-02T16:02:07.415Z,92.70
2019-05-02T16:04:37.784Z,92.60
2019-05-02T16:07:08.329Z,92.20
2019-05-02T16:09:36.975Z,92.20
2019-05-02T16:12:05.999Z,92.10
2019-05-02T16:14:36.127Z,92.00
2019-05-02T16:17:04.952Z,92.00
2019-05-02T16:19:35.310Z,91.60
2019-05-02T16:22:08.340Z,91.60
2019-05-02T16:24:37.134Z,91.50
2019-05-02T16:27:05.858Z,91.60
2019-05-02T16:29:34.582Z,91.40
2019-05-02T16:32:21.976Z,91.70
2019-05-02T16:34:54.811Z,91.60
2019-05-02T16:37:22.858Z,91.80
2019-05-02T16:39:51.593Z,91.80
2019-05-02T16:42:22.300Z,90.10
2019-05-02T16:44:52.209Z,90.00
2019-05-02T16:47:21.947Z,88.60
2019-05-02T16:49:53.146Z,89.10
2019-05-02T16:52:22.156Z,88.40
2019-05-02T16:54:52.697Z,88.90
2019-05-02T16:57:22.171Z,88.60
2019-05-02T16:59:54.024Z,88.60
2019-05-02T17:02:21.900Z,88.50
2019-05-02T17:04:54.194Z,89.30
2019-05-02T17:07:22.666Z,88.80
2019-05-02T17:10:08.531Z,89.80
2019-05-02T17:12:38.510Z,90.50
2019-05-02T17:15:26.303Z,90.40
2019-05-02T17:17:57.354Z,90.80
2019-05-02T17:20:26.046Z,90.80
2019-05-02T17:23:01.807Z,91.10
2019-05-02T17:25:25.140Z,91.20
2019-05-02T17:28:01.161Z,90.80
2019-05-02T17:30:33.705Z,91.10
2019-05-02T17:32:58.194Z,91.00
2019-05-02T17:35:26.953Z,90.50
2019-05-02T17:37:57.102Z,90.90
2019-05-02T17:40:26.142Z,90.40
2019-05-02T17:42:57.290Z,90.10
2019-05-02T17:45:25.475Z,90.10
2019-05-02T17:47:54.315Z,88.50
2019-05-02T17:50:27.821Z,87.70
2019-05-02T17:53:00.970Z,86.70
2019-05-02T17:55:39.843Z,86.20
2019-05-02T17:58:12.499Z,86.80
2019-05-02T18:00:36.850Z,87.00
2019-05-02T18:03:05.569Z,87.50
2019-05-02T18:05:35.800Z,86.60
2019-05-02T18:08:05.991Z,87.50
2019-05-02T18:10:35.801Z,88.40
2019-05-02T18:13:04.926Z,90.40
2019-05-02T18:15:34.701Z,91.40
2019-05-02T18:18:06.734Z,91.80
2019-05-02T18:20:37.104Z,92.80
2019-05-02T18:23:12.081Z,92.00
2019-05-02T18:25:39.047Z,92.00
2019-05-02T18:28:07.762Z,92.20
2019-05-02T18:30:38.227Z,92.90
2019-05-02T18:33:08.423Z,93.50
2019-05-02T18:35:41.950Z,94.30
2019-05-02T18:38:07.821Z,94.80
2019-05-02T18:40:38.816Z,94.90
2019-05-02T18:43:07.554Z,94.40
2019-05-02T18:45:36.353Z,93.60
2019-05-02T18:48:07.093Z,93.60
2019-05-02T18:50:46.972Z,94.10
2019-05-02T18:53:18.565Z,93.70
2019-05-02T18:55:51.703Z,93.50
2019-05-02T18:58:19.229Z,93.60
2019-05-02T19:00:47.924Z,93.50
2019-05-02T19:03:17.256Z,93.50
2019-05-02T19:05:46.730Z,93.80
2019-05-02T19:08:28.171Z,93.70
2019-05-02T19:11:03.987Z,93.10
2019-05-02T19:13:17.648Z,93.30
2019-05-02T19:15:49.278Z,93.60
2019-05-02T19:18:21.611Z,93.50
2019-05-02T19:20:57.386Z,92.80
2019-05-02T19:23:23.770Z,93.20
2019-05-02T19:25:52.929Z,93.40
2019-05-02T19:28:36.741Z,92.80
2019-05-02T19:31:06.748Z,92.60
2019-05-02T19:33:37.470Z,92.40
2019-05-02T19:36:03.764Z,92.50
2019-05-02T19:38:34.791Z,92.80
2019-05-02T19:41:09.325Z,92.40
2019-05-02T19:43:40.259Z,92.40
2019-05-02T19:46:13.305Z,92.60
2019-05-02T19:48:43.963Z,92.90
2019-05-02T19:51:18.408Z,92.50
2019-05-02T19:53:53.431Z,92.80
2019-05-02T19:56:17.525Z,93.10
2019-05-02T19:58:46.911Z,93.20
2019-05-02T20:01:17.453Z,92.90
2019-05-02T20:03:47.842Z,93.10
2019-05-02T20:06:16.707Z,93.20
2019-05-02T20:08:48.804Z,93.30
2019-05-02T20:11:17.619Z,93.30
2019-05-02T20:13:47.823Z,93.40
2019-05-02T20:16:22.447Z,93.70
2019-05-02T20:19:09.366Z,93.70
2019-05-02T20:21:42.981Z,93.60
2019-05-02T20:24:17.543Z,94.00
2019-05-02T20:26:46.746Z,93.60
2019-05-02T20:29:12.919Z,94.10
2019-05-02T20:31:41.642Z,94.20
2019-05-02T20:34:11.777Z,94.40
2019-05-02T20:36:42.460Z,94.00
2019-05-02T20:39:11.908Z,94.40
2019-05-02T20:41:44.585Z,94.00
2019-05-02T20:44:17.933Z,94.20
2019-05-02T20:46:46.685Z,94.20
2019-05-02T20:49:15.553Z,94.30
2019-05-02T20:51:44.310Z,94.30
2019-05-02T20:54:15.113Z,94.60
2019-05-02T20:56:43.751Z,94.50
2019-05-02T20:59:12.841Z,94.40
2019-05-02T21:01:42.876Z,94.40
2019-05-02T21:04:12.162Z,94.50
2019-05-02T21:06:44.088Z,94.60
2019-05-02T21:09:16.412Z,94.80
2019-05-02T21:11:52.552Z,94.90
2019-05-02T21:14:21.700Z,95.00
2019-05-02T21:16:50.479Z,95.20
2019-05-02T21:19:19.301Z,95.20
2019-05-02T21:21:48.288Z,95.30
2019-05-02T21:24:17.012Z,95.00
2019-05-02T21:26:45.716Z,95.20
2019-05-02T21:29:14.479Z,95.50
2019-05-02T21:31:43.581Z,95.40
2019-05-02T21:34:12.372Z,95.50
2019-05-02T21:36:42.687Z,95.50
2019-05-02T21:39:12.612Z,95.80
2019-05-02T21:41:42.712Z,95.60
2019-05-02T21:44:13.168Z,95.40
2019-05-02T21:46:42.855Z,95.60
2019-05-02T21:49:19.241Z,95.40
2019-05-02T21:51:51.642Z,95.70
2019-05-02T21:54:22.677Z,95.80
2019-05-02T21:57:02.701Z,95.80
2019-05-02T21:59:31.924Z,95.70
2019-05-02T22:02:02.492Z,95.80
2019-05-02T22:04:32.020Z,95.90
2019-05-02T22:07:02.015Z,95.80
2019-05-02T22:09:32.384Z,95.80
2019-05-02T22:12:01.927Z,96.10
2019-05-02T22:14:32.629Z,95.80
2019-05-02T22:17:02.255Z,96.10
2019-05-02T22:19:32.447Z,96.10
2019-05-02T22:22:01.733Z,95.90
2019-05-02T22:24:33.364Z,95.90
2019-05-02T22:27:02.088Z,96.30
2019-05-02T22:29:32.429Z,96.10
2019-05-02T22:32:03.032Z,96.10
2019-05-02T22:34:32.718Z,95.90
2019-05-02T22:37:02.231Z,96.00
2019-05-02T22:39:42.009Z,96.00
2019-05-02T22:42:09.903Z,96.20
2019-05-02T22:44:38.615Z,96.00
2019-05-02T22:47:08.833Z,96.20
2019-05-02T22:49:37.460Z,96.10
2019-05-02T22:52:06.172Z,96.20
2019-05-02T22:54:34.876Z,96.00
2019-05-02T22:57:05.208Z,96.10
2019-05-02T22:59:33.966Z,96.00
2019-05-02T23:02:04.006Z,96.20
2019-05-02T23:04:32.892Z,96.00
2019-05-02T23:07:04.843Z,96.00
2019-05-02T23:09:33.556Z,96.10
2019-05-02T23:12:02.936Z,96.20
2019-05-02T23:14:33.737Z,96.20
2019-05-02T23:17:03.231Z,96.20
2019-05-02T23:19:32.139Z,96.20
2019-05-02T23:22:02.454Z,96.20
2019-05-02T23:24:39.335Z,96.30
2019-05-02T23:27:16.392Z,96.30
2019-05-02T23:29:45.099Z,96.50
2019-05-02T23:32:13.813Z,96.60
2019-05-02T23:34:43.584Z,96.50
2019-05-02T23:37:12.414Z,96.80
2019-05-02T23:39:42.080Z,96.60
2019-05-02T23:42:10.946Z,96.60
2019-05-02T23:44:39.704Z,96.70
2019-05-02T23:47:11.747Z,96.70
2019-05-02T23:49:42.695Z,96.90
2019-05-02T23:52:11.798Z,96.80
2019-05-02T23:54:49.941Z,96.70
2019-05-02T23:57:14.453Z,96.80
2019-05-02T23:59:45.111Z,96.90
